sensor_id;sensor_type;location;lat;lon;timestamp;P1;durP1;ratioP1;P2;durP2;ratioP2
79646;SDS011;69119;41.718;21.786;2023-06-14T00:00:32;15.32;;;9.38;;
79646;SDS011;69119;41.718;21.786;2023-06-14T00:02:59;15.45;;;9.43;;
79646;SDS011;69119;41.718;21.786;2023-06-14T00:05:26;14.63;;;8.32;;
79646;SDS011;69119;41.718;21.786;2023-06-14T00:07:53;16.42;;;9.43;;
79646;SDS011;69119;41.718;21.786;2023-06-14T00:10:19;17.77;;;10.02;;
79646;SDS011;69119;41.718;21.786;2023-06-14T00:12:45;16.52;;;9.90;;
79646;SDS011;69119;41.718;21.786;2023-06-14T00:15:11;18.80;;;9.55;;
79646;SDS011;69119;41.718;21.786;2023-06-14T00:17:37;16.27;;;8.75;;
79646;SDS011;69119;41.718;21.786;2023-06-14T00:20:05;14.55;;;9.38;;
79646;SDS011;69119;41.718;21.786;2023-06-14T00:22:31;14.90;;;9.70;;
79646;SDS011;69119;41.718;21.786;2023-06-14T00:24:58;15.48;;;8.73;;
79646;SDS011;69119;41.718;21.786;2023-06-14T00:29:50;19.63;;;10.88;;
79646;SDS011;69119;41.718;21.786;2023-06-14T00:32:18;15.65;;;9.13;;
79646;SDS011;69119;41.718;21.786;2023-06-14T00:34:44;15.63;;;9.35;;
79646;SDS011;69119;41.718;21.786;2023-06-14T00:37:10;15.00;;;8.73;;
79646;SDS011;69119;41.718;21.786;2023-06-14T00:39:36;15.25;;;9.02;;
79646;SDS011;69119;41.718;21.786;2023-06-14T00:42:02;16.23;;;9.57;;
79646;SDS011;69119;41.718;21.786;2023-06-14T00:44:30;19.13;;;9.63;;
79646;SDS011;69119;41.718;21.786;2023-06-14T00:46:56;18.35;;;10.10;;
79646;SDS011;69119;41.718;21.786;2023-06-14T00:49:22;14.25;;;9.13;;
79646;SDS011;69119;41.718;21.786;2023-06-14T00:51:48;14.02;;;9.13;;
79646;SDS011;69119;41.718;21.786;2023-06-14T00:54:15;15.00;;;8.35;;
79646;SDS011;69119;41.718;21.786;2023-06-14T00:56:41;13.63;;;8.80;;
79646;SDS011;69119;41.718;21.786;2023-06-14T00:59:08;15.32;;;9.35;;
79646;SDS011;69119;41.718;21.786;2023-06-14T01:01:36;15.02;;;8.75;;
79646;SDS011;69119;41.718;21.786;2023-06-14T01:04:03;15.38;;;8.88;;
79646;SDS011;69119;41.718;21.786;2023-06-14T01:09:23;15.52;;;8.85;;
79646;SDS011;69119;41.718;21.786;2023-06-14T01:12:13;14.35;;;9.27;;
79646;SDS011;69119;41.718;21.786;2023-06-14T01:14:41;13.15;;;8.40;;
79646;SDS011;69119;41.718;21.786;2023-06-14T01:19:41;13.75;;;8.40;;
79646;SDS011;69119;41.718;21.786;2023-06-14T01:22:07;16.60;;;9.20;;
79646;SDS011;69119;41.718;21.786;2023-06-14T01:24:34;18.77;;;9.40;;
79646;SDS011;69119;41.718;21.786;2023-06-14T01:27:00;13.80;;;8.75;;
79646;SDS011;69119;41.718;21.786;2023-06-14T01:29:27;13.20;;;8.25;;
79646;SDS011;69119;41.718;21.786;2023-06-14T01:31:57;14.38;;;8.27;;
79646;SDS011;69119;41.718;21.786;2023-06-14T01:36:49;13.27;;;7.35;;
79646;SDS011;69119;41.718;21.786;2023-06-14T01:41:42;11.55;;;7.20;;
79646;SDS011;69119;41.718;21.786;2023-06-14T01:44:09;13.73;;;7.32;;
79646;SDS011;69119;41.718;21.786;2023-06-14T01:46:35;14.32;;;7.85;;
79646;SDS011;69119;41.718;21.786;2023-06-14T01:49:02;13.65;;;7.40;;
79646;SDS011;69119;41.718;21.786;2023-06-14T01:51:28;12.07;;;6.72;;
79646;SDS011;69119;41.718;21.786;2023-06-14T01:53:54;11.93;;;6.82;;
79646;SDS011;69119;41.718;21.786;2023-06-14T01:56:22;12.73;;;8.38;;
79646;SDS011;69119;41.718;21.786;2023-06-14T01:58:48;12.85;;;8.30;;
79646;SDS011;69119;41.718;21.786;2023-06-14T02:01:15;12.63;;;8.13;;
79646;SDS011;69119;41.718;21.786;2023-06-14T02:03:41;12.18;;;7.25;;
79646;SDS011;69119;41.718;21.786;2023-06-14T02:06:09;11.35;;;6.88;;
79646;SDS011;69119;41.718;21.786;2023-06-14T02:08:35;10.57;;;6.68;;
79646;SDS011;69119;41.718;21.786;2023-06-14T02:11:01;15.80;;;9.82;;
79646;SDS011;69119;41.718;21.786;2023-06-14T02:13:27;11.48;;;6.07;;
79646;SDS011;69119;41.718;21.786;2023-06-14T02:15:54;11.63;;;7.05;;
79646;SDS011;69119;41.718;21.786;2023-06-14T02:18:20;13.77;;;7.65;;
79646;SDS011;69119;41.718;21.786;2023-06-14T02:20:47;13.43;;;7.55;;
79646;SDS011;69119;41.718;21.786;2023-06-14T02:23:13;12.15;;;6.85;;
79646;SDS011;69119;41.718;21.786;2023-06-14T02:25:39;12.13;;;7.32;;
79646;SDS011;69119;41.718;21.786;2023-06-14T02:28:06;11.32;;;7.45;;
79646;SDS011;69119;41.718;21.786;2023-06-14T02:30:32;13.90;;;7.70;;
79646;SDS011;69119;41.718;21.786;2023-06-14T02:32:58;13.23;;;7.35;;
79646;SDS011;69119;41.718;21.786;2023-06-14T02:35:24;10.43;;;6.68;;
79646;SDS011;69119;41.718;21.786;2023-06-14T02:37:53;14.13;;;7.80;;
79646;SDS011;69119;41.718;21.786;2023-06-14T02:40:19;12.75;;;7.50;;
79646;SDS011;69119;41.718;21.786;2023-06-14T02:42:46;14.65;;;8.38;;
79646;SDS011;69119;41.718;21.786;2023-06-14T02:45:12;13.38;;;7.30;;
79646;SDS011;69119;41.718;21.786;2023-06-14T02:47:38;10.10;;;6.82;;
79646;SDS011;69119;41.718;21.786;2023-06-14T02:50:05;11.57;;;7.68;;
79646;SDS011;69119;41.718;21.786;2023-06-14T02:54:58;12.98;;;7.45;;
79646;SDS011;69119;41.718;21.786;2023-06-14T02:59:50;12.88;;;7.82;;
79646;SDS011;69119;41.718;21.786;2023-06-14T03:02:17;12.93;;;7.68;;
79646;SDS011;69119;41.718;21.786;2023-06-14T03:04:43;13.40;;;7.25;;
79646;SDS011;69119;41.718;21.786;2023-06-14T03:07:11;10.65;;;6.97;;
79646;SDS011;69119;41.718;21.786;2023-06-14T03:09:38;13.73;;;7.53;;
79646;SDS011;69119;41.718;21.786;2023-06-14T03:12:05;14.05;;;7.00;;
79646;SDS011;69119;41.718;21.786;2023-06-14T03:14:32;13.68;;;8.00;;
79646;SDS011;69119;41.718;21.786;2023-06-14T03:16:58;11.82;;;6.38;;
79646;SDS011;69119;41.718;21.786;2023-06-14T03:19:25;10.88;;;7.18;;
79646;SDS011;69119;41.718;21.786;2023-06-14T03:21:51;9.98;;;5.13;;
79646;SDS011;69119;41.718;21.786;2023-06-14T03:24:18;10.85;;;6.35;;
79646;SDS011;69119;41.718;21.786;2023-06-14T03:26:45;11.52;;;7.70;;
79646;SDS011;69119;41.718;21.786;2023-06-14T03:29:11;13.23;;;7.38;;
79646;SDS011;69119;41.718;21.786;2023-06-14T03:31:41;12.05;;;7.03;;
79646;SDS011;69119;41.718;21.786;2023-06-14T03:34:22;13.38;;;6.63;;
79646;SDS011;69119;41.718;21.786;2023-06-14T03:36:48;9.88;;;5.38;;
79646;SDS011;69119;41.718;21.786;2023-06-14T03:39:14;9.50;;;5.82;;
79646;SDS011;69119;41.718;21.786;2023-06-14T03:41:40;11.05;;;5.63;;
79646;SDS011;69119;41.718;21.786;2023-06-14T03:44:06;12.90;;;7.03;;
79646;SDS011;69119;41.718;21.786;2023-06-14T03:46:32;13.05;;;7.10;;
79646;SDS011;69119;41.718;21.786;2023-06-14T03:48:58;13.05;;;6.47;;
79646;SDS011;69119;41.718;21.786;2023-06-14T03:51:25;14.60;;;7.82;;
79646;SDS011;69119;41.718;21.786;2023-06-14T03:53:51;14.07;;;7.10;;
79646;SDS011;69119;41.718;21.786;2023-06-14T03:56:17;11.68;;;6.53;;
79646;SDS011;69119;41.718;21.786;2023-06-14T03:58:43;9.75;;;5.60;;
79646;SDS011;69119;41.718;21.786;2023-06-14T04:01:09;17.38;;;7.53;;
79646;SDS011;69119;41.718;21.786;2023-06-14T04:03:37;9.60;;;5.75;;
79646;SDS011;69119;41.718;21.786;2023-06-14T04:06:05;10.43;;;6.28;;
79646;SDS011;69119;41.718;21.786;2023-06-14T04:08:32;9.20;;;5.80;;
79646;SDS011;69119;41.718;21.786;2023-06-14T04:10:59;10.95;;;5.13;;
79646;SDS011;69119;41.718;21.786;2023-06-14T04:13:26;10.27;;;5.60;;
79646;SDS011;69119;41.718;21.786;2023-06-14T04:18:18;9.95;;;5.30;;
79646;SDS011;69119;41.718;21.786;2023-06-14T04:20:44;9.05;;;4.80;;
79646;SDS011;69119;41.718;21.786;2023-06-14T04:23:11;10.85;;;5.22;;
79646;SDS011;69119;41.718;21.786;2023-06-14T04:25:38;9.50;;;4.85;;
79646;SDS011;69119;41.718;21.786;2023-06-14T04:28:05;10.75;;;5.07;;
79646;SDS011;69119;41.718;21.786;2023-06-14T04:30:34;10.18;;;5.80;;
79646;SDS011;69119;41.718;21.786;2023-06-14T04:33:01;13.73;;;5.90;;
79646;SDS011;69119;41.718;21.786;2023-06-14T04:35:30;9.40;;;5.72;;
79646;SDS011;69119;41.718;21.786;2023-06-14T04:37:57;11.10;;;5.82;;
79646;SDS011;69119;41.718;21.786;2023-06-14T04:40:24;11.82;;;5.47;;
79646;SDS011;69119;41.718;21.786;2023-06-14T04:42:50;10.38;;;5.25;;
79646;SDS011;69119;41.718;21.786;2023-06-14T04:45:16;10.48;;;5.47;;
79646;SDS011;69119;41.718;21.786;2023-06-14T04:47:42;8.27;;;4.90;;
79646;SDS011;69119;41.718;21.786;2023-06-14T04:52:36;9.63;;;5.07;;
79646;SDS011;69119;41.718;21.786;2023-06-14T04:55:02;8.82;;;4.63;;
79646;SDS011;69119;41.718;21.786;2023-06-14T04:57:28;9.23;;;4.38;;
79646;SDS011;69119;41.718;21.786;2023-06-14T04:59:55;9.15;;;4.95;;
79646;SDS011;69119;41.718;21.786;2023-06-14T05:02:22;10.93;;;4.97;;
79646;SDS011;69119;41.718;21.786;2023-06-14T05:07:14;10.60;;;5.57;;
79646;SDS011;69119;41.718;21.786;2023-06-14T05:09:40;10.25;;;5.03;;
79646;SDS011;69119;41.718;21.786;2023-06-14T05:12:06;9.85;;;4.35;;
79646;SDS011;69119;41.718;21.786;2023-06-14T05:16:58;9.40;;;4.25;;
79646;SDS011;69119;41.718;21.786;2023-06-14T05:19:24;9.43;;;4.38;;
79646;SDS011;69119;41.718;21.786;2023-06-14T05:21:51;9.23;;;5.07;;
79646;SDS011;69119;41.718;21.786;2023-06-14T05:24:18;9.77;;;4.28;;
79646;SDS011;69119;41.718;21.786;2023-06-14T05:26:44;9.15;;;4.28;;
79646;SDS011;69119;41.718;21.786;2023-06-14T05:29:10;8.73;;;4.38;;
79646;SDS011;69119;41.718;21.786;2023-06-14T05:31:37;9.77;;;4.75;;
79646;SDS011;69119;41.718;21.786;2023-06-14T05:34:03;9.90;;;4.90;;
79646;SDS011;69119;41.718;21.786;2023-06-14T05:36:29;11.15;;;5.57;;
79646;SDS011;69119;41.718;21.786;2023-06-14T05:38:56;7.93;;;4.38;;
79646;SDS011;69119;41.718;21.786;2023-06-14T05:41:26;7.85;;;4.13;;
79646;SDS011;69119;41.718;21.786;2023-06-14T05:43:53;6.82;;;3.70;;
79646;SDS011;69119;41.718;21.786;2023-06-14T05:46:19;8.77;;;4.90;;
79646;SDS011;69119;41.718;21.786;2023-06-14T05:48:49;7.60;;;4.50;;
79646;SDS011;69119;41.718;21.786;2023-06-14T05:53:44;8.77;;;3.42;;
79646;SDS011;69119;41.718;21.786;2023-06-14T05:56:10;7.53;;;4.60;;
79646;SDS011;69119;41.718;21.786;2023-06-14T05:58:36;7.75;;;4.13;;
79646;SDS011;69119;41.718;21.786;2023-06-14T06:01:02;8.63;;;4.40;;
79646;SDS011;69119;41.718;21.786;2023-06-14T06:03:28;8.68;;;4.38;;
79646;SDS011;69119;41.718;21.786;2023-06-14T06:05:54;7.97;;;3.80;;
79646;SDS011;69119;41.718;21.786;2023-06-14T06:08:21;6.88;;;4.10;;
79646;SDS011;69119;41.718;21.786;2023-06-14T06:13:13;8.70;;;3.63;;
79646;SDS011;69119;41.718;21.786;2023-06-14T06:18:04;9.70;;;4.10;;
79646;SDS011;69119;41.718;21.786;2023-06-14T06:20:31;8.00;;;3.97;;
79646;SDS011;69119;41.718;21.786;2023-06-14T06:22:57;7.43;;;3.95;;
79646;SDS011;69119;41.718;21.786;2023-06-14T06:25:24;7.70;;;3.80;;
79646;SDS011;69119;41.718;21.786;2023-06-14T06:27:54;7.82;;;4.03;;
79646;SDS011;69119;41.718;21.786;2023-06-14T06:30:24;8.85;;;5.55;;
79646;SDS011;69119;41.718;21.786;2023-06-14T06:32:50;6.70;;;3.75;;
79646;SDS011;69119;41.718;21.786;2023-06-14T06:35:16;8.73;;;5.43;;
79646;SDS011;69119;41.718;21.786;2023-06-14T06:37:42;8.68;;;4.13;;
79646;SDS011;69119;41.718;21.786;2023-06-14T06:40:09;7.85;;;4.45;;
79646;SDS011;69119;41.718;21.786;2023-06-14T06:42:35;8.52;;;4.45;;
79646;SDS011;69119;41.718;21.786;2023-06-14T06:45:01;9.13;;;3.97;;
79646;SDS011;69119;41.718;21.786;2023-06-14T06:47:27;7.57;;;3.60;;
79646;SDS011;69119;41.718;21.786;2023-06-14T06:52:19;8.52;;;4.15;;
79646;SDS011;69119;41.718;21.786;2023-06-14T06:54:45;7.07;;;4.05;;
79646;SDS011;69119;41.718;21.786;2023-06-14T06:57:11;8.15;;;3.50;;
79646;SDS011;69119;41.718;21.786;2023-06-14T06:59:38;9.63;;;4.18;;
79646;SDS011;69119;41.718;21.786;2023-06-14T07:02:04;8.40;;;3.10;;
79646;SDS011;69119;41.718;21.786;2023-06-14T07:04:30;6.63;;;3.08;;
79646;SDS011;69119;41.718;21.786;2023-06-14T07:09:22;6.60;;;4.13;;
79646;SDS011;69119;41.718;21.786;2023-06-14T07:11:49;8.55;;;4.38;;
79646;SDS011;69119;41.718;21.786;2023-06-14T07:14:15;9.13;;;3.45;;
79646;SDS011;69119;41.718;21.786;2023-06-14T07:19:08;8.10;;;3.97;;
79646;SDS011;69119;41.718;21.786;2023-06-14T07:21:35;9.98;;;3.58;;
79646;SDS011;69119;41.718;21.786;2023-06-14T07:24:04;8.02;;;4.40;;
79646;SDS011;69119;41.718;21.786;2023-06-14T07:26:31;9.57;;;4.22;;
79646;SDS011;69119;41.718;21.786;2023-06-14T07:28:57;8.68;;;4.38;;
79646;SDS011;69119;41.718;21.786;2023-06-14T07:33:49;9.02;;;3.40;;
79646;SDS011;69119;41.718;21.786;2023-06-14T07:38:42;8.43;;;4.30;;
79646;SDS011;69119;41.718;21.786;2023-06-14T07:41:09;7.40;;;3.42;;
79646;SDS011;69119;41.718;21.786;2023-06-14T07:43:35;8.93;;;3.85;;
79646;SDS011;69119;41.718;21.786;2023-06-14T07:48:27;8.45;;;3.58;;
79646;SDS011;69119;41.718;21.786;2023-06-14T07:50:53;9.25;;;3.30;;
79646;SDS011;69119;41.718;21.786;2023-06-14T07:53:20;8.40;;;3.90;;
79646;SDS011;69119;41.718;21.786;2023-06-14T07:55:46;9.15;;;3.80;;
79646;SDS011;69119;41.718;21.786;2023-06-14T07:58:13;10.48;;;4.90;;
79646;SDS011;69119;41.718;21.786;2023-06-14T08:00:40;8.27;;;3.58;;
79646;SDS011;69119;41.718;21.786;2023-06-14T08:05:32;8.02;;;3.80;;
79646;SDS011;69119;41.718;21.786;2023-06-14T08:07:59;8.50;;;3.25;;
79646;SDS011;69119;41.718;21.786;2023-06-14T08:12:51;8.93;;;3.63;;
79646;SDS011;69119;41.718;21.786;2023-06-14T08:17:43;7.50;;;3.45;;
79646;SDS011;69119;41.718;21.786;2023-06-14T08:20:10;8.13;;;3.40;;
79646;SDS011;69119;41.718;21.786;2023-06-14T08:22:36;8.23;;;3.97;;
79646;SDS011;69119;41.718;21.786;2023-06-14T08:25:02;6.05;;;3.75;;
79646;SDS011;69119;41.718;21.786;2023-06-14T08:27:28;10.00;;;3.33;;
79646;SDS011;69119;41.718;21.786;2023-06-14T08:29:54;6.78;;;3.72;;
79646;SDS011;69119;41.718;21.786;2023-06-14T08:32:21;8.10;;;3.55;;
79646;SDS011;69119;41.718;21.786;2023-06-14T08:34:47;7.60;;;3.53;;
79646;SDS011;69119;41.718;21.786;2023-06-14T08:39:39;7.22;;;4.28;;
79646;SDS011;69119;41.718;21.786;2023-06-14T08:42:05;8.68;;;4.32;;
79646;SDS011;69119;41.718;21.786;2023-06-14T08:44:32;9.45;;;3.75;;
79646;SDS011;69119;41.718;21.786;2023-06-14T08:47:02;10.20;;;4.20;;
79646;SDS011;69119;41.718;21.786;2023-06-14T08:51:57;9.65;;;4.32;;
79646;SDS011;69119;41.718;21.786;2023-06-14T08:54:25;7.25;;;4.38;;
79646;SDS011;69119;41.718;21.786;2023-06-14T08:56:53;9.10;;;4.50;;
79646;SDS011;69119;41.718;21.786;2023-06-14T08:59:23;7.57;;;4.13;;
79646;SDS011;69119;41.718;21.786;2023-06-14T09:01:50;8.55;;;4.22;;
79646;SDS011;69119;41.718;21.786;2023-06-14T09:04:17;7.57;;;4.13;;
79646;SDS011;69119;41.718;21.786;2023-06-14T09:06:45;8.07;;;4.45;;
79646;SDS011;69119;41.718;21.786;2023-06-14T09:09:11;8.63;;;4.85;;
79646;SDS011;69119;41.718;21.786;2023-06-14T09:11:37;8.43;;;4.78;;
79646;SDS011;69119;41.718;21.786;2023-06-14T09:14:03;8.82;;;5.10;;
79646;SDS011;69119;41.718;21.786;2023-06-14T09:16:32;7.88;;;5.53;;
79646;SDS011;69119;41.718;21.786;2023-06-14T09:18:58;7.10;;;4.38;;
79646;SDS011;69119;41.718;21.786;2023-06-14T09:21:24;9.05;;;5.10;;
79646;SDS011;69119;41.718;21.786;2023-06-14T09:23:50;6.85;;;4.18;;
79646;SDS011;69119;41.718;21.786;2023-06-14T09:26:18;6.88;;;3.90;;
79646;SDS011;69119;41.718;21.786;2023-06-14T09:28:48;9.70;;;4.68;;
79646;SDS011;69119;41.718;21.786;2023-06-14T09:31:15;7.13;;;3.67;;
79646;SDS011;69119;41.718;21.786;2023-06-14T09:33:41;10.73;;;4.55;;
79646;SDS011;69119;41.718;21.786;2023-06-14T09:36:12;11.25;;;4.03;;
79646;SDS011;69119;41.718;21.786;2023-06-14T09:38:41;7.32;;;4.00;;
79646;SDS011;69119;41.718;21.786;2023-06-14T09:41:07;7.65;;;3.35;;
79646;SDS011;69119;41.718;21.786;2023-06-14T09:43:33;6.82;;;4.00;;
79646;SDS011;69119;41.718;21.786;2023-06-14T09:46:02;6.53;;;4.10;;
79646;SDS011;69119;41.718;21.786;2023-06-14T09:48:29;7.13;;;4.18;;
79646;SDS011;69119;41.718;21.786;2023-06-14T09:50:55;8.85;;;4.03;;
79646;SDS011;69119;41.718;21.786;2023-06-14T09:53:22;7.97;;;4.68;;
79646;SDS011;69119;41.718;21.786;2023-06-14T09:55:49;8.27;;;4.25;;
79646;SDS011;69119;41.718;21.786;2023-06-14T09:58:16;6.47;;;3.78;;
79646;SDS011;69119;41.718;21.786;2023-06-14T10:00:42;7.80;;;4.65;;
79646;SDS011;69119;41.718;21.786;2023-06-14T10:03:11;6.82;;;4.35;;
79646;SDS011;69119;41.718;21.786;2023-06-14T10:05:37;9.30;;;4.50;;
79646;SDS011;69119;41.718;21.786;2023-06-14T10:08:08;6.57;;;3.92;;
79646;SDS011;69119;41.718;21.786;2023-06-14T10:10:34;9.25;;;4.85;;
79646;SDS011;69119;41.718;21.786;2023-06-14T10:13:00;8.32;;;5.13;;
79646;SDS011;69119;41.718;21.786;2023-06-14T10:15:29;7.97;;;4.90;;
79646;SDS011;69119;41.718;21.786;2023-06-14T10:17:59;8.88;;;6.07;;
79646;SDS011;69119;41.718;21.786;2023-06-14T10:22:58;11.57;;;5.82;;
79646;SDS011;69119;41.718;21.786;2023-06-14T10:25:26;9.02;;;5.65;;
79646;SDS011;69119;41.718;21.786;2023-06-14T10:27:53;8.10;;;5.72;;
79646;SDS011;69119;41.718;21.786;2023-06-14T10:30:27;8.18;;;5.20;;
79646;SDS011;69119;41.718;21.786;2023-06-14T10:33:06;9.88;;;7.43;;
79646;SDS011;69119;41.718;21.786;2023-06-14T10:35:33;9.02;;;6.10;;
79646;SDS011;69119;41.718;21.786;2023-06-14T10:38:06;10.63;;;7.28;;
79646;SDS011;69119;41.718;21.786;2023-06-14T10:40:32;11.43;;;8.65;;
79646;SDS011;69119;41.718;21.786;2023-06-14T10:42:59;11.70;;;8.95;;
79646;SDS011;69119;41.718;21.786;2023-06-14T10:45:25;14.00;;;9.80;;
79646;SDS011;69119;41.718;21.786;2023-06-14T10:47:51;11.10;;;8.68;;
79646;SDS011;69119;41.718;21.786;2023-06-14T10:50:22;12.05;;;7.72;;
79646;SDS011;69119;41.718;21.786;2023-06-14T10:52:54;14.18;;;8.98;;
79646;SDS011;69119;41.718;21.786;2023-06-14T10:55:20;12.50;;;8.85;;
79646;SDS011;69119;41.718;21.786;2023-06-14T10:57:48;12.60;;;8.50;;
79646;SDS011;69119;41.718;21.786;2023-06-14T11:00:21;12.43;;;9.18;;
79646;SDS011;69119;41.718;21.786;2023-06-14T11:05:49;12.30;;;8.30;;
79646;SDS011;69119;41.718;21.786;2023-06-14T11:09:02;10.70;;;7.85;;
79646;SDS011;69119;41.718;21.786;2023-06-14T11:11:06;11.27;;;8.88;;
79646;SDS011;69119;41.718;21.786;2023-06-14T11:13:33;13.85;;;8.60;;
79646;SDS011;69119;41.718;21.786;2023-06-14T11:15:59;11.38;;;7.72;;
79646;SDS011;69119;41.718;21.786;2023-06-14T11:18:25;13.20;;;9.50;;
79646;SDS011;69119;41.718;21.786;2023-06-14T11:20:54;10.98;;;7.70;;
79646;SDS011;69119;41.718;21.786;2023-06-14T11:23:21;10.45;;;6.78;;
79646;SDS011;69119;41.718;21.786;2023-06-14T11:25:51;12.27;;;9.25;;
79646;SDS011;69119;41.718;21.786;2023-06-14T11:28:17;10.80;;;7.80;;
79646;SDS011;69119;41.718;21.786;2023-06-14T11:30:48;10.02;;;7.70;;
79646;SDS011;69119;41.718;21.786;2023-06-14T11:33:17;11.27;;;7.25;;
79646;SDS011;69119;41.718;21.786;2023-06-14T11:35:44;10.98;;;7.38;;
79646;SDS011;69119;41.718;21.786;2023-06-14T11:38:10;11.32;;;7.38;;
79646;SDS011;69119;41.718;21.786;2023-06-14T11:40:37;10.98;;;7.72;;
79646;SDS011;69119;41.718;21.786;2023-06-14T11:43:03;11.48;;;7.45;;
79646;SDS011;69119;41.718;21.786;2023-06-14T11:45:30;12.75;;;7.50;;
79646;SDS011;69119;41.718;21.786;2023-06-14T11:47:56;11.27;;;7.85;;
79646;SDS011;69119;41.718;21.786;2023-06-14T11:50:22;11.48;;;7.00;;
79646;SDS011;69119;41.718;21.786;2023-06-14T11:52:53;9.68;;;6.90;;
79646;SDS011;69119;41.718;21.786;2023-06-14T11:55:20;10.60;;;6.28;;
79646;SDS011;69119;41.718;21.786;2023-06-14T11:57:46;10.50;;;6.57;;
79646;SDS011;69119;41.718;21.786;2023-06-14T12:00:12;10.85;;;6.72;;
79646;SDS011;69119;41.718;21.786;2023-06-14T12:02:40;11.63;;;7.03;;
79646;SDS011;69119;41.718;21.786;2023-06-14T12:05:07;9.25;;;5.72;;
79646;SDS011;69119;41.718;21.786;2023-06-14T12:07:35;10.90;;;6.10;;
79646;SDS011;69119;41.718;21.786;2023-06-14T12:12:34;10.68;;;5.88;;
79646;SDS011;69119;41.718;21.786;2023-06-14T12:15:02;9.50;;;6.05;;
79646;SDS011;69119;41.718;21.786;2023-06-14T12:17:31;9.98;;;6.00;;
79646;SDS011;69119;41.718;21.786;2023-06-14T12:19:57;14.68;;;6.43;;
79646;SDS011;69119;41.718;21.786;2023-06-14T12:22:23;9.70;;;6.35;;
79646;SDS011;69119;41.718;21.786;2023-06-14T12:24:49;9.70;;;5.40;;
79646;SDS011;69119;41.718;21.786;2023-06-14T12:27:15;9.20;;;6.15;;
79646;SDS011;69119;41.718;21.786;2023-06-14T12:29:43;10.00;;;5.57;;
79646;SDS011;69119;41.718;21.786;2023-06-14T12:32:10;10.65;;;5.28;;
79646;SDS011;69119;41.718;21.786;2023-06-14T12:34:36;10.57;;;7.22;;
79646;SDS011;69119;41.718;21.786;2023-06-14T12:37:03;9.98;;;6.40;;
79646;SDS011;69119;41.718;21.786;2023-06-14T12:39:29;8.65;;;5.07;;
79646;SDS011;69119;41.718;21.786;2023-06-14T12:41:59;9.10;;;5.05;;
79646;SDS011;69119;41.718;21.786;2023-06-14T12:44:25;8.77;;;5.28;;
79646;SDS011;69119;41.718;21.786;2023-06-14T12:46:52;10.93;;;6.10;;
79646;SDS011;69119;41.718;21.786;2023-06-14T12:49:19;11.32;;;5.82;;
79646;SDS011;69119;41.718;21.786;2023-06-14T12:51:45;10.30;;;5.20;;
79646;SDS011;69119;41.718;21.786;2023-06-14T12:54:11;10.10;;;6.15;;
79646;SDS011;69119;41.718;21.786;2023-06-14T12:56:39;11.88;;;5.38;;
79646;SDS011;69119;41.718;21.786;2023-06-14T12:59:07;10.63;;;5.30;;
79646;SDS011;69119;41.718;21.786;2023-06-14T13:01:33;8.98;;;5.47;;
79646;SDS011;69119;41.718;21.786;2023-06-14T13:04:00;7.88;;;4.32;;
79646;SDS011;69119;41.718;21.786;2023-06-14T13:06:26;8.85;;;5.35;;
79646;SDS011;69119;41.718;21.786;2023-06-14T13:08:52;9.52;;;5.75;;
79646;SDS011;69119;41.718;21.786;2023-06-14T13:11:19;9.25;;;6.00;;
79646;SDS011;69119;41.718;21.786;2023-06-14T13:13:45;10.25;;;5.22;;
79646;SDS011;69119;41.718;21.786;2023-06-14T13:16:12;8.13;;;5.10;;
79646;SDS011;69119;41.718;21.786;2023-06-14T13:18:39;8.32;;;5.43;;
79646;SDS011;69119;41.718;21.786;2023-06-14T13:21:05;8.73;;;5.93;;
79646;SDS011;69119;41.718;21.786;2023-06-14T13:23:31;8.80;;;5.95;;
79646;SDS011;69119;41.718;21.786;2023-06-14T13:25:57;7.88;;;5.35;;
79646;SDS011;69119;41.718;21.786;2023-06-14T13:28:23;8.60;;;5.13;;
79646;SDS011;69119;41.718;21.786;2023-06-14T13:30:49;9.20;;;5.75;;
79646;SDS011;69119;41.718;21.786;2023-06-14T13:33:15;6.57;;;4.20;;
79646;SDS011;69119;41.718;21.786;2023-06-14T13:35:41;6.68;;;3.97;;
79646;SDS011;69119;41.718;21.786;2023-06-14T13:38:09;9.27;;;4.00;;
79646;SDS011;69119;41.718;21.786;2023-06-14T13:40:35;8.10;;;5.13;;
79646;SDS011;69119;41.718;21.786;2023-06-14T13:43:02;8.48;;;4.20;;
79646;SDS011;69119;41.718;21.786;2023-06-14T13:45:28;8.25;;;3.58;;
79646;SDS011;69119;41.718;21.786;2023-06-14T13:47:54;7.85;;;4.03;;
79646;SDS011;69119;41.718;21.786;2023-06-14T13:50:20;6.70;;;4.15;;
79646;SDS011;69119;41.718;21.786;2023-06-14T13:52:46;8.25;;;4.63;;
79646;SDS011;69119;41.718;21.786;2023-06-14T13:55:12;8.68;;;4.75;;
79646;SDS011;69119;41.718;21.786;2023-06-14T13:57:39;11.85;;;3.92;;
79646;SDS011;69119;41.718;21.786;2023-06-14T14:00:05;7.28;;;4.25;;
79646;SDS011;69119;41.718;21.786;2023-06-14T14:02:31;7.03;;;3.55;;
79646;SDS011;69119;41.718;21.786;2023-06-14T14:04:57;8.63;;;4.07;;
79646;SDS011;69119;41.718;21.786;2023-06-14T14:07:24;7.05;;;3.03;;
79646;SDS011;69119;41.718;21.786;2023-06-14T14:09:50;6.78;;;3.75;;
79646;SDS011;69119;41.718;21.786;2023-06-14T14:12:16;7.28;;;4.10;;
79646;SDS011;69119;41.718;21.786;2023-06-14T14:14:42;6.65;;;3.63;;
79646;SDS011;69119;41.718;21.786;2023-06-14T14:17:08;6.63;;;3.22;;
79646;SDS011;69119;41.718;21.786;2023-06-14T14:19:34;9.32;;;3.88;;
79646;SDS011;69119;41.718;21.786;2023-06-14T14:22:01;8.60;;;3.53;;
79646;SDS011;69119;41.718;21.786;2023-06-14T14:24:27;7.30;;;3.95;;
79646;SDS011;69119;41.718;21.786;2023-06-14T14:26:53;6.40;;;3.90;;
79646;SDS011;69119;41.718;21.786;2023-06-14T14:29:21;7.10;;;3.42;;
79646;SDS011;69119;41.718;21.786;2023-06-14T14:31:47;6.60;;;3.42;;
79646;SDS011;69119;41.718;21.786;2023-06-14T14:34:13;5.97;;;3.47;;
79646;SDS011;69119;41.718;21.786;2023-06-14T14:36:39;7.38;;;3.38;;
79646;SDS011;69119;41.718;21.786;2023-06-14T14:39:07;5.93;;;2.67;;
79646;SDS011;69119;41.718;21.786;2023-06-14T14:41:33;6.88;;;3.35;;
79646;SDS011;69119;41.718;21.786;2023-06-14T14:43:59;7.95;;;3.83;;
79646;SDS011;69119;41.718;21.786;2023-06-14T14:46:26;8.10;;;3.92;;
79646;SDS011;69119;41.718;21.786;2023-06-14T14:48:53;6.43;;;2.75;;
79646;SDS011;69119;41.718;21.786;2023-06-14T14:51:19;5.80;;;3.05;;
79646;SDS011;69119;41.718;21.786;2023-06-14T14:53:45;5.95;;;3.35;;
79646;SDS011;69119;41.718;21.786;2023-06-14T14:56:11;7.97;;;3.13;;
79646;SDS011;69119;41.718;21.786;2023-06-14T14:58:37;7.10;;;3.17;;
79646;SDS011;69119;41.718;21.786;2023-06-14T15:01:04;8.00;;;3.55;;
79646;SDS011;69119;41.718;21.786;2023-06-14T15:03:30;7.68;;;3.30;;
79646;SDS011;69119;41.718;21.786;2023-06-14T15:05:57;8.80;;;4.72;;
79646;SDS011;69119;41.718;21.786;2023-06-14T15:08:23;9.27;;;6.53;;
79646;SDS011;69119;41.718;21.786;2023-06-14T15:10:49;9.32;;;5.38;;
79646;SDS011;69119;41.718;21.786;2023-06-14T15:13:15;10.70;;;6.85;;
79646;SDS011;69119;41.718;21.786;2023-06-14T15:15:41;14.40;;;7.65;;
79646;SDS011;69119;41.718;21.786;2023-06-14T15:20:34;8.77;;;4.93;;
79646;SDS011;69119;41.718;21.786;2023-06-14T15:25:27;14.35;;;7.97;;
79646;SDS011;69119;41.718;21.786;2023-06-14T15:27:53;11.57;;;7.10;;
79646;SDS011;69119;41.718;21.786;2023-06-14T15:32:45;13.05;;;8.57;;
79646;SDS011;69119;41.718;21.786;2023-06-14T15:35:11;11.73;;;7.60;;
79646;SDS011;69119;41.718;21.786;2023-06-14T15:40:04;11.05;;;5.55;;
79646;SDS011;69119;41.718;21.786;2023-06-14T15:42:30;12.23;;;6.97;;
79646;SDS011;69119;41.718;21.786;2023-06-14T15:44:56;11.82;;;7.50;;